Time;durP1;ratioP1;P1;durP2;ratioP2;P2;SDS_P1;SDS_P2;PMS_P1;PMS_P2;Temp;Humidity;BMP_temperature;BMP_pressure;BME280_temperature;BME280_humidity;BME280_pressure;Samples;Min_cycle;Max_cycle;Signal;HPM_P1;HPM_P2
2021/12/27 00:00:08;;;;;;;;;;;;;;;;;;5114824;28;20014;-66
2021/12/27 00:02:34;;;;;;;;;;;6.50;87.20;;;;;;5114808;28;19972;-66
2021/12/27 00:05:00;;;;;;;;;;;6.10;87.00;;;;;;5113265;28;19919;-65
2021/12/27 00:07:25;;;;;;;;;;;6.50;87.30;;;;;;5114781;28;19922;-65
2021/12/27 00:09:51;;;;;;;;;;;6.20;87.00;;;;;;5114452;28;20018;-65
2021/12/27 00:12:17;;;;;;;;;;;6.30;87.10;;;;;;5114696;28;19922;-66
2021/12/27 00:14:43;;;;;;;;;;;;;;;;;;5112384;28;20268;-62
2021/12/27 00:17:08;;;;;;;;;;;6.40;87.00;;;;;;5114252;28;19976;-61
2021/12/27 00:19:34;;;;;;;;;;;6.60;87.10;;;;;;5114663;28;19922;-61
2021/12/27 00:21:59;;;;;;;;;;;6.30;87.00;;;;;;5114126;28;19970;-61
2021/12/27 00:24:25;;;;;;;;;;;6.40;87.00;;;;;;5112914;28;19927;-60
2021/12/27 00:26:52;;;;;;;;;;;6.40;87.00;;;;;;5114237;28;19926;-61
2021/12/27 00:29:17;;;;;;;;;;;6.60;87.10;;;;;;5114309;28;19927;-66
2021/12/27 00:31:43;;;;;;;;;;;6.40;87.10;;;;;;5107253;28;20373;-66
2021/12/27 00:34:08;;;;;;;;;;;6.50;87.20;;;;;;5094151;28;19919;-66
2021/12/27 00:36:34;;;;;;;;;;;6.30;87.00;;;;;;5098962;28;19919;-66
2021/12/27 00:39:00;;;;;;;;;;;6.40;87.00;;;;;;5114414;28;19926;-66
2021/12/27 00:41:25;;;;;;;;;;;6.50;87.10;;;;;;5114379;28;20314;-60
2021/12/27 00:43:51;;;;;;;;;;;6.60;87.10;;;;;;5106292;28;19923;-61
2021/12/27 00:46:17;;;;;;;;;;;6.60;87.10;;;;;;5093850;28;19932;-61
2021/12/27 00:48:42;;;;;;;;;;;6.30;86.90;;;;;;5105953;28;19920;-61
2021/12/27 00:51:09;;;;;;;;;;;6.30;86.90;;;;;;5097494;28;19924;-61
2021/12/27 00:53:35;;;;;;;;;;;6.20;86.90;;;;;;5112032;28;19945;-61
2021/12/27 00:56:01;;;;;;;;;;;;;;;;;;5114283;28;19939;-62
2021/12/27 00:58:27;;;;;;;;;;;6.50;87.10;;;;;;5101203;28;19919;-66
2021/12/27 01:00:53;;;;;;;;;;;6.20;87.00;;;;;;5113783;28;19927;-66
2021/12/27 01:03:20;;;;;;;;;;;6.50;87.20;;;;;;5112431;28;19977;-66
2021/12/27 01:05:45;;;;;;;;;;;6.30;87.10;;;;;;5113919;28;19930;-66
2021/12/27 01:08:11;;;;;;;;;;;6.30;87.10;;;;;;5113805;28;20010;-61
2021/12/27 01:18:12;;;;;;;;;;;;;;;;;;5093701;28;19974;-62
2021/12/27 01:20:38;;;;;;;;;;;6.20;87.00;;;;;;5093538;28;19927;-62
2021/12/27 01:23:04;;;;;;;;;;;6.40;87.10;;;;;;5093728;28;19973;-62
2021/12/27 01:25:29;;;;;;;;;;;6.30;87.00;;;;;;5094765;28;19934;-62
2021/12/27 01:27:55;;;;;;;;;;;6.50;87.00;;;;;;5095873;28;19942;-61
2021/12/27 01:30:21;;;;;;;;;;;6.50;87.00;;;;;;5097871;28;19923;-61
2021/12/27 01:32:51;;;;;;;;;;;6.50;87.10;;;;;;5097305;28;19920;-61
2021/12/27 01:35:17;;;;;;;;;;;6.40;87.10;;;;;;5080671;28;19920;-61
2021/12/27 01:37:42;;;;;;;;;;;6.30;87.00;;;;;;5117652;28;19927;-60
2021/12/27 01:40:08;;;;;;;;;;;6.30;87.00;;;;;;5117283;28;20297;-62
2021/12/27 01:42:34;;;;;;;;;;;6.50;87.10;;;;;;5098802;28;19974;-62
2021/12/27 01:45:00;;;;;;;;;;;6.20;86.90;;;;;;5117804;28;19927;-61
2021/12/27 01:47:28;;;;;;;;;;;6.40;87.00;;;;;;5103319;28;19920;-61
2021/12/27 01:49:53;;;;;;;;;;;6.40;87.00;;;;;;5096957;28;19934;-61
2021/12/27 01:52:19;;;;;;;;;;;6.40;87.00;;;;;;5110040;28;19920;-60
2021/12/27 01:54:45;;;;;;;;;;;6.40;87.00;;;;;;5117294;28;20053;-62
2021/12/27 01:57:11;;;;;;;;;;;6.20;86.90;;;;;;5092470;28;19963;-61
2021/12/27 01:59:37;;;;;;;;;;;6.40;87.00;;;;;;5102667;28;19942;-61
2021/12/27 02:02:03;;;;;;;;;;;6.30;87.00;;;;;;5106205;28;19920;-62
2021/12/27 02:04:29;;;;;;;;;;;;;;;;;;5096566;28;20006;-63
2021/12/27 02:06:54;;;;;;;;;;;6.40;87.00;;;;;;5113586;28;20324;-61
2021/12/27 02:09:27;;;;;;;;;;;6.70;87.20;;;;;;5104620;28;19916;-61
2021/12/27 02:11:53;;;;;;;;;;;6.30;87.10;;;;;;5083501;28;19989;-61
2021/12/27 02:14:18;;;;;;;;;;;6.40;87.10;;;;;;5116744;28;19920;-61
2021/12/27 02:16:44;;;;;;;;;;;6.30;87.10;;;;;;5116757;28;19920;-60
2021/12/27 02:19:10;;;;;;;;;;;6.40;86.40;;;;;;5115156;28;19998;-61
2021/12/27 02:21:35;;;;;;;;;;;6.50;87.20;;;;;;5116633;28;20314;-61
2021/12/27 02:24:03;;;;;;;;;;;6.70;87.30;;;;;;5116773;28;19920;-60
2021/12/27 02:26:29;;;;;;;;;;;6.40;87.10;;;;;;5116716;28;19933;-66
2021/12/27 02:28:54;;;;;;;;;;;6.50;87.10;;;;;;5115005;28;20012;-66
2021/12/27 02:31:20;;;;;;;;;;;6.70;87.30;;;;;;5116529;28;20351;-66
2021/12/27 02:33:46;;;;;;;;;;;6.30;87.10;;;;;;5117123;28;19931;-65
2021/12/27 02:36:11;;;;;;;;;;;6.60;87.40;;;;;;5116416;28;19920;-66
2021/12/27 02:38:39;;;;;;;;;;;;;;;;;;5116211;28;20010;-66
2021/12/27 02:41:04;;;;;;;;;;;6.30;87.20;;;;;;5114657;28;19920;-65
2021/12/27 02:43:30;;;;;;;;;;;6.60;87.40;;;;;;5116075;28;20257;-66
2021/12/27 02:46:14;;;;;;;;;;;6.50;87.40;;;;;;5116110;28;19915;-66
2021/12/27 02:48:47;;;;;;;;;;;6.40;87.40;;;;;;5116260;28;19967;-66
2021/12/27 02:51:12;;;;;;;;;;;6.50;87.40;;;;;;5114472;28;19919;-65
2021/12/27 02:53:38;;;;;;;;;;;6.70;87.50;;;;;;5115884;28;19972;-66
2021/12/27 02:56:06;;;;;;;;;;;6.40;87.40;;;;;;5115772;28;19923;-61
2021/12/27 02:58:32;;;;;;;;;;;6.50;87.50;;;;;;5115593;28;19926;-61
2021/12/27 03:00:59;;;;;;;;;;;6.40;87.40;;;;;;5113979;28;19931;-60
2021/12/27 03:03:25;;;;;;;;;;;6.70;87.50;;;;;;5107919;28;19974;-60
2021/12/27 03:05:52;;;;;;;;;;;6.60;87.50;;;;;;5095519;28;19924;-65
2021/12/27 03:08:18;;;;;;;;;;;6.50;87.50;;;;;;5114056;28;19919;-66
2021/12/27 03:10:45;;;;;;;;;;;6.50;87.50;;;;;;5115819;28;20012;-61
2021/12/27 03:13:15;;;;;;;;;;;6.60;87.50;;;;;;5113085;28;20322;-61
2021/12/27 03:15:40;;;;;;;;;;;6.60;87.60;;;;;;5095221;28;19920;-61
2021/12/27 03:18:06;;;;;;;;;;;6.70;87.60;;;;;;5094945;28;19920;-61
2021/12/27 03:20:31;;;;;;;;;;;6.40;87.50;;;;;;5094776;28;19947;-66
2021/12/27 03:22:57;;;;;;;;;;;6.50;87.50;;;;;;5109847;28;20026;-66
2021/12/27 03:25:23;;;;;;;;;;;6.70;87.70;;;;;;5110471;28;19924;-61
2021/12/27 03:27:49;;;;;;;;;;;6.30;87.60;;;;;;5110756;28;19923;-61
2021/12/27 03:30:16;;;;;;;;;;;6.40;87.70;;;;;;5103304;28;20057;-61
2021/12/27 03:32:43;;;;;;;;;;;6.40;87.60;;;;;;5113908;28;19940;-60
2021/12/27 03:35:12;;;;;;;;;;;6.50;87.70;;;;;;5093465;28;19920;-66
2021/12/27 03:37:38;;;;;;;;;;;6.40;87.80;;;;;;5094999;28;19924;-65
2021/12/27 03:40:04;;;;;;;;;;;6.40;87.80;;;;;;5094943;28;20349;-66
2021/12/27 03:42:30;;;;;;;;;;;6.70;88.00;;;;;;5093309;28;19966;-66
2021/12/27 03:44:55;;;;;;;;;;;6.60;87.90;;;;;;5088971;28;19924;-65
2021/12/27 03:47:21;;;;;;;;;;;6.40;87.90;;;;;;5104645;28;19920;-65
2021/12/27 03:49:47;;;;;;;;;;;6.60;88.10;;;;;;5114357;28;19947;-66
2021/12/27 03:52:12;;;;;;;;;;;6.60;88.20;;;;;;5114648;28;20361;-66
2021/12/27 03:54:38;;;;;;;;;;;;;;;;;;5113305;28;19919;-66
2021/12/27 03:57:04;;;;;;;;;;;6.50;88.20;;;;;;5115577;28;20320;-65
2021/12/27 04:02:11;;;;;;;;;;;6.50;88.30;;;;;;5114489;28;19924;-66
2021/12/27 04:04:36;;;;;;;;;;;6.50;88.30;;;;;;5114551;28;19925;-66
2021/12/27 04:07:02;;;;;;;;;;;6.60;88.40;;;;;;5112915;28;19916;-66
2021/12/27 04:09:28;;;;;;;;;;;6.90;88.60;;;;;;5114443;28;19924;-60
2021/12/27 04:11:54;;;;;;;;;;;6.50;88.40;;;;;;5114398;28;20070;-61
2021/12/27 04:14:19;;;;;;;;;;;6.40;88.30;;;;;;5095974;28;19942;-61
2021/12/27 04:16:46;;;;;;;;;;;6.50;88.30;;;;;;5081737;28;20010;-61
2021/12/27 04:19:12;;;;;;;;;;;;;;;;;;5107865;28;19916;-61
2021/12/27 04:21:38;;;;;;;;;;;6.40;88.30;;;;;;5107211;28;20289;-60
2021/12/27 04:24:03;;;;;;;;;;;6.50;88.40;;;;;;5103709;28;19920;-61
2021/12/27 04:26:29;;;;;;;;;;;6.50;88.40;;;;;;5110261;28;19920;-61
2021/12/27 04:28:55;;;;;;;;;;;6.70;88.60;;;;;;5094773;28;19919;-61
2021/12/27 04:31:21;;;;;;;;;;;;;;;;;;5113958;28;20018;-61
2021/12/27 04:33:46;;;;;;;;;;;6.80;88.80;;;;;;5114197;28;20389;-61
2021/12/27 04:36:12;;;;;;;;;;;6.40;88.50;;;;;;5100110;28;19969;-61
2021/12/27 04:38:38;;;;;;;;;;;6.60;88.70;;;;;;5112449;28;20372;-61
2021/12/27 04:41:04;;;;;;;;;;;6.60;88.70;;;;;;5114054;28;19931;-61
2021/12/27 04:43:29;;;;;;;;;;;6.70;88.90;;;;;;5114428;28;19947;-61
2021/12/27 04:45:55;;;;;;;;;;;6.40;88.70;;;;;;5098465;28;20450;-61
2021/12/27 04:48:21;;;;;;;;;;;6.50;88.70;;;;;;5102569;28;19920;-60
2021/12/27 04:50:47;;;;;;;;;;;6.50;88.80;;;;;;5109354;28;19964;-61
2021/12/27 04:53:12;;;;;;;;;;;6.60;88.90;;;;;;5113398;28;20283;-60
2021/12/27 04:55:38;;;;;;;;;;;6.40;88.90;;;;;;5113654;28;19920;-61
2021/12/27 04:58:04;;;;;;;;;;;6.30;88.60;;;;;;5113737;28;19919;-61
2021/12/27 05:00:30;;;;;;;;;;;6.50;89.10;;;;;;5114353;28;20369;-61
2021/12/27 05:02:55;;;;;;;;;;;6.70;89.20;;;;;;5117879;28;19920;-62
2021/12/27 05:05:21;;;;;;;;;;;6.70;89.20;;;;;;5111504;28;20011;-61
2021/12/27 05:07:47;;;;;;;;;;;6.40;88.90;;;;;;5103229;28;19926;-61
2021/12/27 05:10:16;;;;;;;;;;;6.50;89.10;;;;;;5097345;28;19923;-61
2021/12/27 05:12:42;;;;;;;;;;;6.70;89.30;;;;;;5102951;28;20019;-60
2021/12/27 05:15:07;;;;;;;;;;;6.50;89.10;;;;;;5099476;28;19969;-61
2021/12/27 05:17:33;;;;;;;;;;;6.60;89.20;;;;;;5117792;28;20293;-61
2021/12/27 05:19:59;;;;;;;;;;;6.60;89.10;;;;;;5111847;28;20319;-61
2021/12/27 05:22:25;;;;;;;;;;;6.70;89.20;;;;;;5104648;28;20385;-61
2021/12/27 05:24:50;;;;;;;;;;;6.50;88.90;;;;;;5079055;28;19964;-63
2021/12/27 05:27:16;;;;;;;;;;;;;;;;;;5108534;28;20014;-62
2021/12/27 05:29:42;;;;;;;;;;;6.50;89.20;;;;;;5105897;28;19928;-62
2021/12/27 05:32:08;;;;;;;;;;;6.60;89.20;;;;;;5108889;28;19931;-61
2021/12/27 05:34:33;;;;;;;;;;;6.60;89.40;;;;;;5096868;28;20384;-61
2021/12/27 05:36:59;;;;;;;;;;;6.70;89.40;;;;;;5114100;28;19920;-61
2021/12/27 05:39:25;;;;;;;;;;;6.50;89.30;;;;;;5117648;28;19916;-61
2021/12/27 05:41:50;;;;;;;;;;;6.60;89.30;;;;;;5106647;28;20375;-61
2021/12/27 05:44:17;;;;;;;;;;;6.60;89.30;;;;;;5102296;28;19926;-60
2021/12/27 05:46:43;;;;;;;;;;;6.70;89.40;;;;;;5111140;28;19927;-65
2021/12/27 05:49:08;;;;;;;;;;;6.40;89.30;;;;;;5109999;28;19920;-66
2021/12/27 05:51:36;;;;;;;;;;;6.70;89.50;;;;;;5115717;28;19920;-66
2021/12/27 05:54:03;;;;;;;;;;;6.70;89.50;;;;;;5116642;28;19923;-66
2021/12/27 05:56:28;;;;;;;;;;;6.60;88.90;;;;;;5117334;28;19927;-66
2021/12/27 05:58:54;;;;;;;;;;;6.50;89.50;;;;;;5116759;28;19919;-66
2021/12/27 06:01:19;;;;;;;;;;;6.40;89.50;;;;;;5117171;28;19974;-66
2021/12/27 06:03:45;;;;;;;;;;;6.50;89.50;;;;;;5101274;28;20361;-67
2021/12/27 06:06:11;;;;;;;;;;;6.50;89.60;;;;;;5116163;28;19924;-66
2021/12/27 06:08:36;;;;;;;;;;;6.60;89.60;;;;;;5117089;28;19973;-61
2021/12/27 06:11:02;;;;;;;;;;;6.60;89.60;;;;;;5116741;28;20368;-61
2021/12/27 06:13:27;;;;;;;;;;;6.50;89.10;;;;;;5090700;28;20384;-62
2021/12/27 06:15:53;;;;;;;;;;;6.70;89.70;;;;;;5096452;28;20900;-61
2021/12/27 06:18:19;;;;;;;;;;;6.60;89.70;;;;;;5096139;28;20297;-66
2021/12/27 06:20:44;;;;;;;;;;;6.40;89.50;;;;;;5096358;28;19924;-66
2021/12/27 06:23:10;;;;;;;;;;;6.60;89.80;;;;;;5096039;28;20364;-62
2021/12/27 06:25:35;;;;;;;;;;;6.40;89.70;;;;;;5094182;28;19920;-64
2021/12/27 06:28:01;;;;;;;;;;;6.60;89.80;;;;;;5095981;28;19965;-60
2021/12/27 06:30:27;;;;;;;;;;;6.50;89.80;;;;;;5096233;28;19970;-61
2021/12/27 06:32:52;;;;;;;;;;;6.40;89.70;;;;;;5096242;28;19943;-63
2021/12/27 06:35:18;;;;;;;;;;;6.60;89.80;;;;;;5094390;28;19963;-63
2021/12/27 06:37:44;;;;;;;;;;;6.70;89.90;;;;;;5096098;28;19920;-61
2021/12/27 06:40:10;;;;;;;;;;;6.80;90.00;;;;;;5061288;28;19919;-63
2021/12/27 06:42:36;;;;;;;;;;;;;;;;;;5096622;28;19923;-63
2021/12/27 06:45:02;;;;;;;;;;;;;;;;;;5113889;28;19919;-62
2021/12/27 06:47:28;;;;;;;;;;;6.30;89.80;;;;;;5075595;28;20360;-65
2021/12/27 06:49:53;;;;;;;;;;;6.80;90.00;;;;;;5058773;28;19955;-66
2021/12/27 06:52:19;;;;;;;;;;;6.70;90.00;;;;;;5085198;28;20049;-66
2021/12/27 06:54:45;;;;;;;;;;;6.70;90.00;;;;;;5083967;28;19931;-65
2021/12/27 06:57:11;;;;;;;;;;;6.50;89.90;;;;;;5082717;28;19928;-66
2021/12/27 06:59:36;;;;;;;;;;;6.80;90.10;;;;;;5103018;28;20395;-65
2021/12/27 07:02:02;;;;;;;;;;;6.60;90.00;;;;;;5115599;28;20010;-66
2021/12/27 07:04:28;;;;;;;;;;;6.60;90.00;;;;;;5115658;28;19930;-65
2021/12/27 07:06:53;;;;;;;;;;;6.70;90.00;;;;;;5104981;28;19927;-62
2021/12/27 07:09:19;;;;;;;;;;;6.50;90.00;;;;;;5075215;28;19971;-62
2021/12/27 07:11:45;;;;;;;;;;;;;;;;;;5102369;28;19967;-62
2021/12/27 07:14:11;;;;;;;;;;;6.60;90.00;;;;;;5115802;28;20314;-65
2021/12/27 07:16:36;;;;;;;;;;;6.90;90.10;;;;;;5096657;28;19920;-65
2021/12/27 07:19:02;;;;;;;;;;;6.80;90.10;;;;;;5092870;28;19920;-64
2021/12/27 07:21:28;;;;;;;;;;;6.80;90.10;;;;;;5076723;28;19920;-66
2021/12/27 07:23:53;;;;;;;;;;;6.80;90.10;;;;;;5093292;28;20392;-63
2021/12/27 07:26:19;;;;;;;;;;;6.70;90.00;;;;;;5095081;28;19916;-65
2021/12/27 07:28:45;;;;;;;;;;;6.70;90.00;;;;;;5093044;28;19923;-67
2021/12/27 07:31:10;;;;;;;;;;;6.50;90.10;;;;;;5094783;28;19916;-66
2021/12/27 07:33:36;;;;;;;;;;;6.50;90.00;;;;;;5076596;28;19920;-66
2021/12/27 07:36:02;;;;;;;;;;;6.90;90.10;;;;;;5095000;28;20000;-66
2021/12/27 07:38:28;;;;;;;;;;;6.80;90.20;;;;;;5094082;28;19920;-63
2021/12/27 07:40:53;;;;;;;;;;;6.50;90.10;;;;;;5093766;28;19919;-63
2021/12/27 07:43:19;;;;;;;;;;;6.80;90.10;;;;;;5094480;28;19973;-62
2021/12/27 07:45:45;;;;;;;;;;;6.70;90.10;;;;;;5094668;28;20044;-64
2021/12/27 07:48:10;;;;;;;;;;;6.80;90.20;;;;;;5107724;28;19920;-63
2021/12/27 07:50:36;;;;;;;;;;;6.60;90.10;;;;;;5099998;28;20418;-64
2021/12/27 07:53:02;;;;;;;;;;;6.70;90.20;;;;;;5094728;28;20285;-63
2021/12/27 07:55:29;;;;;;;;;;;6.80;90.20;;;;;;5086165;28;19921;-65
2021/12/27 07:57:55;;;;;;;;;;;6.80;90.20;;;;;;5074074;28;19920;-63
2021/12/27 08:00:20;;;;;;;;;;;6.90;90.20;;;;;;5098323;28;19994;-62
2021/12/27 08:02:46;;;;;;;;;;;6.80;90.20;;;;;;5108329;28;19963;-61
2021/12/27 08:05:12;;;;;;;;;;;6.50;90.10;;;;;;5108285;28;20298;-61
2021/12/27 08:07:38;;;;;;;;;;;;;;;;;;5102460;28;19924;-62
2021/12/27 08:10:03;;;;;;;;;;;7.00;90.30;;;;;;5103766;28;20388;-63
2021/12/27 08:12:29;;;;;;;;;;;6.60;90.20;;;;;;5108772;28;20056;-65
2021/12/27 08:14:55;;;;;;;;;;;;;;;;;;5112417;28;19922;-64
2021/12/27 08:17:21;;;;;;;;;;;6.60;90.20;;;;;;5104891;28;19927;-64
2021/12/27 08:19:47;;;;;;;;;;;6.90;90.20;;;;;;5094375;28;20018;-65
2021/12/27 08:22:13;;;;;;;;;;;6.80;90.30;;;;;;5094512;28;20065;-62
2021/12/27 08:24:39;;;;;;;;;;;6.80;90.30;;;;;;5098758;28;19966;-64
2021/12/27 08:27:04;;;;;;;;;;;6.60;90.20;;;;;;5114564;28;19923;-65
2021/12/27 08:29:30;;;;;;;;;;;6.70;90.30;;;;;;5111467;28;19924;-63
2021/12/27 08:31:56;;;;;;;;;;;;;;;;;;5098068;28;19946;-66
2021/12/27 08:34:22;;;;;;;;;;;6.60;90.30;;;;;;5111366;28;20362;-65
2021/12/27 08:36:47;;;;;;;;;;;6.70;90.30;;;;;;5117056;28;19967;-64
2021/12/27 08:39:14;;;;;;;;;;;6.90;90.30;;;;;;5105104;28;20460;-63
2021/12/27 08:41:39;;;;;;;;;;;6.80;90.30;;;;;;5114361;28;19920;-64
2021/12/27 08:44:05;;;;;;;;;;;7.00;90.40;;;;;;5110971;28;19989;-64
2021/12/27 08:46:31;;;;;;;;;;;;;;;;;;5113006;28;20380;-62
2021/12/27 08:48:57;;;;;;;;;;;6.80;90.30;;;;;;5095064;28;19927;-62
2021/12/27 08:51:23;;;;;;;;;;;6.90;90.40;;;;;;5093474;28;20011;-63
2021/12/27 08:53:49;;;;;;;;;;;7.10;90.40;;;;;;5095447;28;19920;-62
2021/12/27 08:56:15;;;;;;;;;;;6.90;90.40;;;;;;5075641;28;20407;-64
2021/12/27 08:58:40;;;;;;;;;;;6.90;90.40;;;;;;5100295;28;20373;-60
2021/12/27 09:01:06;;;;;;;;;;;6.70;90.30;;;;;;5093315;28;19924;-65
2021/12/27 09:03:32;;;;;;;;;;;7.00;90.40;;;;;;5103062;28;20010;-62
2021/12/27 09:05:58;;;;;;;;;;;6.70;90.40;;;;;;5093745;28;20003;-62
2021/12/27 09:08:24;;;;;;;;;;;6.90;90.40;;;;;;5075903;28;20016;-62
2021/12/27 09:10:49;;;;;;;;;;;6.70;90.30;;;;;;5097237;28;19969;-61
2021/12/27 09:13:15;;;;;;;;;;;7.00;90.40;;;;;;5112716;28;19920;-62
2021/12/27 09:15:40;;;;;;;;;;;6.90;90.40;;;;;;5102316;28;20385;-61
2021/12/27 09:18:06;;;;;;;;;;;7.20;90.50;;;;;;5092812;28;20011;-62
2021/12/27 09:20:32;;;;;;;;;;;7.00;90.50;;;;;;5093401;28;19962;-61
2021/12/27 09:22:58;;;;;;;;;;;7.10;90.50;;;;;;5093326;28;19927;-62
2021/12/27 09:25:23;;;;;;;;;;;7.00;90.50;;;;;;5093574;28;20343;-65
2021/12/27 09:27:49;;;;;;;;;;;7.10;90.50;;;;;;5100525;28;19965;-66
2021/12/27 09:30:15;;;;;;;;;;;7.20;90.50;;;;;;5109464;28;19915;-66
2021/12/27 09:32:40;;;;;;;;;;;7.10;90.40;;;;;;5103261;28;19974;-66
2021/12/27 09:35:06;;;;;;;;;;;7.10;90.50;;;;;;5112856;28;20368;-66
2021/12/27 09:37:32;;;;;;;;;;;7.10;90.50;;;;;;5107257;28;19927;-63
2021/12/27 09:39:57;;;;;;;;;;;7.20;90.50;;;;;;5115103;28;19919;-61
2021/12/27 09:42:24;;;;;;;;;;;7.00;90.50;;;;;;5130969;28;19919;-61
2021/12/27 09:44:49;;;;;;;;;;;7.00;90.50;;;;;;5114352;28;19959;-62
2021/12/27 09:47:15;;;;;;;;;;;7.10;90.50;;;;;;5118798;27;19959;-61
2021/12/27 09:49:41;;;;;;;;;;;7.30;90.50;;;;;;5121962;27;20002;-61
2021/12/27 09:52:06;;;;;;;;;;;7.10;90.50;;;;;;5107244;27;20312;-61
2021/12/27 09:54:32;;;;;;;;;;;;;;;;;;5123468;27;19915;-63
2021/12/27 09:56:58;;;;;;;;;;;7.10;90.50;;;;;;5081765;27;20265;-61
2021/12/27 09:59:24;;;;;;;;;;;;;;;;;;5120018;27;19963;-65
2021/12/27 10:01:52;;;;;;;;;;;7.10;90.50;;;;;;5115852;27;19920;-66
2021/12/27 10:04:18;;;;;;;;;;;;;;;;;;5122454;27;20327;-66
2021/12/27 10:06:43;;;;;;;;;;;7.00;90.30;;;;;;5121825;27;19920;-66
2021/12/27 10:09:09;;;;;;;;;;;7.10;90.60;;;;;;5124797;27;19919;-66
2021/12/27 10:11:35;;;;;;;;;;;7.30;90.80;;;;;;5091481;28;19925;-66
2021/12/27 10:14:01;;;;;;;;;;;7.20;90.80;;;;;;5108852;28;19971;-66
2021/12/27 10:16:27;;;;;;;;;;;7.30;90.80;;;;;;5096848;28;19963;-66
2021/12/27 10:18:56;;;;;;;;;;;7.40;90.90;;;;;;5099099;28;20415;-66
2021/12/27 10:21:21;;;;;;;;;;;7.10;90.80;;;;;;5095996;28;19939;-66
2021/12/27 10:23:47;;;;;;;;;;;7.20;90.80;;;;;;5095539;28;19927;-66
2021/12/27 10:26:16;;;;;;;;;;;7.20;90.80;;;;;;5100095;28;19920;-66
2021/12/27 10:28:42;;;;;;;;;;;7.40;91.00;;;;;;5100953;28;19920;-66
2021/12/27 10:31:08;;;;;;;;;;;7.20;91.00;;;;;;5113406;28;19919;-66
2021/12/27 10:33:33;;;;;;;;;;;7.30;90.90;;;;;;5116318;28;19963;-66
2021/12/27 10:35:59;;;;;;;;;;;7.20;90.90;;;;;;5116528;28;19988;-66
2021/12/27 10:38:26;;;;;;;;;;;7.60;91.00;;;;;;5093503;28;19972;-61
2021/12/27 10:40:55;;;;;;;;;;;7.30;90.80;;;;;;5077633;28;19973;-61
2021/12/27 10:43:21;;;;;;;;;;;;;;;;;;5095853;28;20373;-62
2021/12/27 10:45:47;;;;;;;;;;;7.50;91.20;;;;;;5096760;28;19924;-61
2021/12/27 10:48:20;;;;;;;;;;;7.30;91.00;;;;;;5098740;28;19920;-66
2021/12/27 10:50:46;;;;;;;;;;;7.40;91.00;;;;;;5095810;28;19943;-66
2021/12/27 10:53:14;;;;;;;;;;;7.40;91.00;;;;;;5095337;28;19919;-66
2021/12/27 10:55:40;;;;;;;;;;;7.60;91.10;;;;;;5096086;28;20399;-61
2021/12/27 10:58:25;;;;;;;;;;;7.60;91.20;;;;;;5099102;28;19920;-61
2021/12/27 11:00:50;;;;;;;;;;;7.80;91.40;;;;;;5099999;28;20301;-61
2021/12/27 11:03:16;;;;;;;;;;;;;;;;;;5096172;28;19926;-63
2021/12/27 11:05:42;;;;;;;;;;;7.60;91.40;;;;;;5095126;28;19927;-61
2021/12/27 11:08:08;;;;;;;;;;;;;;;;;;5076980;28;19920;-63
2021/12/27 11:10:35;;;;;;;;;;;7.70;91.50;;;;;;5096163;28;19973;-62
2021/12/27 11:13:01;;;;;;;;;;;7.40;91.40;;;;;;5077449;28;20375;-61
2021/12/27 11:15:30;;;;;;;;;;;7.60;91.60;;;;;;5094901;28;19924;-61
2021/12/27 11:17:56;;;;;;;;;;;7.60;91.50;;;;;;5101678;28;20311;-62
2021/12/27 11:20:22;;;;;;;;;;;7.50;91.50;;;;;;5096696;28;19927;-61
2021/12/27 11:22:47;;;;;;;;;;;7.80;91.50;;;;;;5094074;28;19920;-61
2021/12/27 11:25:25;;;;;;;;;;;7.50;91.40;;;;;;5077050;28;19920;-61
2021/12/27 11:27:51;;;;;;;;;;;7.70;91.40;;;;;;5094720;28;20014;-61
2021/12/27 11:30:22;;;;;;;;;;;7.80;91.40;;;;;;5077435;28;20328;-61
2021/12/27 11:33:04;;;;;;;;;;;7.80;91.40;;;;;;5084345;28;19919;-64
2021/12/27 11:35:34;;;;;;;;;;;7.80;91.40;;;;;;5115417;28;19924;-63
2021/12/27 11:38:01;;;;;;;;;;;7.80;91.30;;;;;;5106500;28;20388;-62
2021/12/27 11:40:37;;;;;;;;;;;7.80;91.30;;;;;;5110460;28;20354;-63
2021/12/27 11:43:04;;;;;;;;;;;7.80;91.40;;;;;;5094822;28;19920;-62
2021/12/27 11:45:53;;;;;;;;;;;7.80;91.40;;;;;;5094311;28;19920;-65
2021/12/27 11:48:19;;;;;;;;;;;;;;;;;;5031582;28;19921;-67
2021/12/27 11:50:45;;;;;;;;;;;;;;;;;;5044849;28;19925;-66
2021/12/27 11:53:11;;;;;;;;;;;8.00;91.50;;;;;;5032501;28;20460;-63
2021/12/27 11:55:37;;;;;;;;;;;7.70;91.60;;;;;;5030109;28;19956;-64
2021/12/27 11:58:03;;;;;;;;;;;7.70;91.50;;;;;;5038803;28;19921;-63
2021/12/27 12:00:32;;;;;;;;;;;7.90;91.60;;;;;;5019459;28;20390;-65
2021/12/27 12:03:00;;;;;;;;;;;7.60;91.50;;;;;;5012298;28;19925;-65
2021/12/27 12:05:39;;;;;;;;;;;7.80;91.50;;;;;;5017352;28;19963;-65
2021/12/27 12:08:05;;;;;;;;;;;;;;;;;;5014461;28;20415;-63
2021/12/27 12:10:31;;;;;;;;;;;7.50;91.50;;;;;;5004866;28;19921;-66
2021/12/27 12:13:16;;;;;;;;;;;7.70;91.60;;;;;;5032033;28;19920;-66
2021/12/27 12:16:00;;;;;;;;;;;7.60;91.40;;;;;;5019528;28;20382;-66
2021/12/27 12:18:26;;;;;;;;;;;7.80;91.70;;;;;;5027224;28;20341;-66
2021/12/27 12:20:52;;;;;;;;;;;7.60;91.60;;;;;;5012228;28;19925;-66
2021/12/27 12:23:18;;;;;;;;;;;7.60;91.70;;;;;;4995357;28;19921;-66
2021/12/27 12:25:43;;;;;;;;;;;7.60;91.80;;;;;;5062333;28;20014;-67
2021/12/27 12:28:10;;;;;;;;;;;7.50;91.70;;;;;;5089364;28;19921;-64
2021/12/27 12:30:39;;;;;;;;;;;7.80;91.80;;;;;;5086235;28;19920;-65
2021/12/27 12:33:15;;;;;;;;;;;7.50;91.80;;;;;;5090858;28;19924;-64
2021/12/27 12:35:41;;;;;;;;;;;7.40;91.80;;;;;;5108197;28;19920;-63
2021/12/27 12:38:08;;;;;;;;;;;7.60;91.90;;;;;;5082915;28;20285;-64
2021/12/27 12:40:33;;;;;;;;;;;7.60;91.90;;;;;;5096646;28;19920;-62
2021/12/27 12:42:59;;;;;;;;;;;;;;;;;;5092856;28;19935;-63
2021/12/27 12:45:28;;;;;;;;;;;7.50;91.90;;;;;;5089796;28;20365;-66
2021/12/27 12:47:54;;;;;;;;;;;7.60;91.90;;;;;;5079987;28;19942;-67
2021/12/27 12:50:20;;;;;;;;;;;7.60;91.80;;;;;;5081766;28;19916;-64
2021/12/27 12:52:50;;;;;;;;;;;7.70;91.90;;;;;;5077253;28;19920;-62
2021/12/27 12:55:15;;;;;;;;;;;7.60;91.80;;;;;;5080456;28;19920;-66
2021/12/27 12:57:41;;;;;;;;;;;;;;;;;;5055183;28;19939;-66
2021/12/27 13:00:07;;;;;;;;;;;7.80;91.90;;;;;;5088688;28;19923;-66
2021/12/27 13:02:35;;;;;;;;;;;;;;;;;;5093071;28;19920;-66
2021/12/27 13:05:07;;;;;;;;;;;7.60;92.00;;;;;;5095843;28;19919;-65
2021/12/27 13:07:39;;;;;;;;;;;7.60;92.00;;;;;;5100877;28;20006;-65
2021/12/27 13:10:09;;;;;;;;;;;7.60;92.00;;;;;;5114214;28;20316;-63
2021/12/27 13:12:35;;;;;;;;;;;7.60;92.00;;;;;;5103856;28;19916;-65
2021/12/27 13:15:08;;;;;;;;;;;7.80;92.00;;;;;;5094261;28;19924;-63
2021/12/27 13:17:37;;;;;;;;;;;7.90;92.00;;;;;;5106510;28;20272;-66
2021/12/27 13:20:06;;;;;;;;;;;7.90;92.00;;;;;;5097277;28;19919;-67
2021/12/27 13:22:51;;;;;;;;;;;7.80;92.10;;;;;;5097078;28;19920;-67
2021/12/27 13:25:35;;;;;;;;;;;7.70;92.10;;;;;;5097103;28;19971;-66
2021/12/27 13:28:08;;;;;;;;;;;7.90;92.20;;;;;;5104057;27;19973;-66
2021/12/27 13:30:47;;;;;;;;;;;7.60;92.20;;;;;;5114217;27;20275;-62
2021/12/27 13:33:14;;;;;;;;;;;7.80;92.30;;;;;;5117477;28;19945;-62
2021/12/27 13:35:42;;;;;;;;;;;7.90;92.20;;;;;;5116245;28;19923;-62
2021/12/27 13:38:18;;;;;;;;;;;7.80;92.20;;;;;;5085903;28;19920;-64
2021/12/27 13:40:44;;;;;;;;;;;7.70;92.20;;;;;;5097406;28;19924;-62
2021/12/27 13:43:10;;;;;;;;;;;;;;;;;;5095385;28;20373;-66
2021/12/27 13:45:42;;;;;;;;;;;7.90;92.20;;;;;;5096845;28;19974;-66
2021/12/27 13:48:11;;;;;;;;;;;;;;;;;;5096245;28;19927;-66
2021/12/27 13:50:38;;;;;;;;;;;;;;;;;;5098742;28;19928;-66
2021/12/27 13:53:14;;;;;;;;;;;7.90;92.20;;;;;;5099963;28;19928;-66
2021/12/27 13:55:40;;;;;;;;;;;7.80;92.20;;;;;;5098683;28;19920;-66
2021/12/27 13:58:15;;;;;;;;;;;7.80;92.20;;;;;;5097291;28;19965;-66
2021/12/27 14:00:41;;;;;;;;;;;7.70;92.30;;;;;;5096587;28;19974;-63
2021/12/27 14:03:07;;;;;;;;;;;;;;;;;;5096580;28;19971;-64
2021/12/27 14:05:33;;;;;;;;;;;8.00;92.00;;;;;;5102471;28;19919;-64
2021/12/27 14:07:59;;;;;;;;;;;;;;;;;;5113769;28;19926;-63
2021/12/27 14:10:27;;;;;;;;;;;7.80;92.30;;;;;;5104293;28;20006;-66
2021/12/27 14:12:53;;;;;;;;;;;;;;;;;;5095986;28;19920;-66
2021/12/27 14:15:25;;;;;;;;;;;7.80;92.30;;;;;;5094891;28;20293;-66
2021/12/27 14:17:52;;;;;;;;;;;7.80;92.30;;;;;;5102569;28;19927;-66
2021/12/27 14:20:18;;;;;;;;;;;7.70;92.30;;;;;;5107240;28;19934;-66
2021/12/27 14:22:45;;;;;;;;;;;8.00;92.40;;;;;;5113858;28;20026;-66
2021/12/27 14:25:18;;;;;;;;;;;7.60;92.20;;;;;;5101156;28;19920;-66
2021/12/27 14:27:44;;;;;;;;;;;7.70;92.40;;;;;;5110349;28;19931;-66
2021/12/27 14:30:19;;;;;;;;;;;7.70;92.40;;;;;;5108445;28;20373;-66
2021/12/27 14:32:47;;;;;;;;;;;7.80;92.50;;;;;;5099292;28;19963;-62
2021/12/27 14:35:16;;;;;;;;;;;7.90;92.50;;;;;;5110483;28;20482;-62
2021/12/27 14:37:42;;;;;;;;;;;7.70;92.50;;;;;;5103587;28;19989;-66
2021/12/27 14:40:08;;;;;;;;;;;7.60;92.60;;;;;;5103394;28;20369;-67
2021/12/27 14:42:34;;;;;;;;;;;;;;;;;;5107309;28;19920;-66
2021/12/27 14:44:59;;;;;;;;;;;7.70;92.70;;;;;;5100525;28;20386;-66
2021/12/27 14:47:25;;;;;;;;;;;7.80;92.80;;;;;;5088319;28;19959;-67